Flight Track Log - Related Links

Times and Time Zones

All times are in EDT time to prevent confusion due to time zone crossing. See the KFS724 flight status page for this flight to view local times or setup timezone preferences in your user account.

Time Position Orientation Groundspeed Altitude Reporting Facility
EDT Latitude Longitude Course Direction KTS MPH feet Rate Location/Type
Wed 07:40:42 PM 27.5183 -99.4608 330° Northwest 150 173 1,300  Level Houston Center
Wed 07:41:44 PM 27.4911 -99.4150 124° Southeast 184 212 2,900 1,805 Climbing Houston Center
Wed 07:42:45 PM 27.5394 -99.3692 40° Northeast 236 272 5,000 2,146 Climbing Houston Center
Wed 07:43:47 PM 27.6092 -99.4111 332° Northwest 279 321 7,300 2,468 Climbing Houston Center
Wed 07:44:49 PM 27.6767 -99.4650 325° Northwest 292 336 10,100 2,032 Climbing Houston Center
Wed 07:45:00 PM 27.9934 -99.7824 327° Northwest  Level FlightAware Approximate
Wed 07:45:51 PM 27.7478 -99.5186 326° Northwest 299 344 11,500  Level Houston Center
Wed 07:46:00 PM 28.0902 -99.8546 330° Northwest  Level FlightAware Approximate
Wed 07:46:53 PM 27.8353 -99.5808 328° Northwest 353 406 12,800  Level Houston Center
Wed 07:47:54 PM 27.9269 -99.6536 325° Northwest 393 452 14,800 1,854 Climbing Houston Center
Wed 07:48:56 PM 28.0389 -99.7419 325° Northwest 407 468 16,600 1,548 Climbing Houston Center
Wed 07:49:58 PM 28.1394 -99.8181 326° Northwest 431 496 18,000 1,403 Climbing Houston Center
Wed 07:51:00 PM 28.2425 -99.8964 326° Northwest 444 511 19,500 1,268 Climbing Houston Center
Wed 07:52:01 PM 28.3458 -99.9783 325° Northwest 451 519 20,600 1,171 Climbing Houston Center
Wed 07:53:03 PM 28.4511 -100.0606 326° Northwest 458 527 21,900 1,306 Climbing Houston Center
Wed 07:54:05 PM 28.5581 -100.1378 328° Northwest 456 525 23,300 1,161 Climbing Houston Center
Wed 07:55:07 PM 28.6783 -100.2275 327° Northwest 455 524 24,300 1,161 Climbing Houston Center
Wed 07:56:09 PM 28.7853 -100.3092 326° Northwest 462 532 25,700 1,306 Climbing Houston Center
Wed 07:57:11 PM 28.8892 -100.3911 325° Northwest 455 524 27,000 1,065 Climbing Houston Center
Wed 07:58:13 PM 28.9936 -100.4753 325° Northwest 457 526 27,900 968 Climbing Houston Center
Wed 07:59:15 PM 29.0972 -100.5569 325° Northwest 451 519 29,000 829 Climbing Houston Center
Wed 08:00:16 PM 29.2228 -100.6578 325° Northwest 459 528 29,600 585 Climbing Houston Center
Wed 08:01:18 PM 29.3303 -100.7456 325° Northwest 471 542 30,200 726 Climbing Houston Center
Wed 08:02:20 PM 29.4192 -100.8508 314° West 461 531 31,100 919 Climbing Houston Center
Wed 08:03:22 PM 29.5053 -100.9656 311° West 466 536 32,100 919 Climbing Houston Center
Wed 08:04:24 PM 29.5867 -101.0756 310° West 459 528 33,000 677 Climbing Houston Center
Wed 08:05:26 PM 29.6661 -101.1842 310° West 449 517 33,500 435 Climbing Houston Center
Wed 08:06:28 PM 29.7375 -101.3033 305° West 453 521 33,900 629 Climbing Houston Center
Wed 08:07:30 PM 29.8031 -101.4575 296° West 450 518 34,800 629 Climbing Houston Center
Wed 08:08:32 PM 29.8578 -101.5853 296° West 446 513 35,200 387 Climbing Houston Center
Wed 08:09:34 PM 29.9139 -101.7106 297° West 442 509 35,600 387 Climbing Houston Center
Wed 08:10:36 PM 29.9689 -101.8369 297° West 441 507 36,000 195 Climbing Houston Center
Wed 08:11:37 PM 30.0250 -101.9625 297° West 441 507 36,000  Level Houston Center
Wed 08:12:39 PM 30.0792 -102.0919 296° West 444 511 36,000  Level Houston Center
Wed 08:13:41 PM 30.1358 -102.2181 297° West 443 510 36,000  Level Houston Center
Wed 08:14:43 PM 30.2058 -102.3717 298° West 445 512 36,000  Level Houston Center
Wed 08:15:45 PM 30.2800 -102.4944 305° West 456 525 36,000  Level Houston Center
Wed 08:16:47 PM 30.3422 -102.6239 299° West 459 528 36,000  Level Houston Center
Wed 08:17:49 PM 30.4000 -102.7631 296° West 471 542 36,000  Level Houston Center
Wed 08:18:51 PM 30.4553 -102.8975 296° West 464 534 36,000  Level Houston Center
Wed 08:19:52 PM 30.5136 -103.0325 297° West 467 537 36,000  Level Houston Center
Wed 08:20:54 PM 30.5703 -103.1683 296° West 467 537 36,000  Level Houston Center
Wed 08:21:56 PM 30.6389 -103.3328 296° West 471 542 36,000  Level Houston Center
Wed 08:22:58 PM 30.6956 -103.4675 296° West 466 536 36,000  Level Houston Center
Wed 08:24:12 PM 30.7589 -103.6286 295° West 468 539 36,000  Level Albuquerque Center
Wed 08:25:14 PM 30.8192 -103.7675 297° West 474 545 36,000  Level Albuquerque Center
Wed 08:26:16 PM 30.8736 -103.9006 296° West 469 540 36,000  Level Albuquerque Center
Wed 08:27:17 PM 30.9292 -104.0356 296° West 466 536 36,000  Level Albuquerque Center
Wed 08:28:19 PM 30.9844 -104.1717 295° West 468 539 36,000  Level Albuquerque Center
Wed 08:29:21 PM 31.0500 -104.3347 295° West 466 536 36,000  Level Albuquerque Center
Wed 08:30:23 PM 31.1047 -104.4708 295° West 467 537 36,000  Level Albuquerque Center
Wed 08:31:24 PM 31.1600 -104.6064 296° West 468 539 36,000  Level Albuquerque Center
Wed 08:32:26 PM 31.2139 -104.7417 295° West 466 536 36,000  Level Albuquerque Center
Wed 08:33:28 PM 31.2689 -104.8769 295° West 466 536 36,000  Level Albuquerque Center
Wed 08:34:30 PM 31.3344 -105.0414 295° West 470 541 36,000  Level Albuquerque Center
Wed 08:35:31 PM 31.3886 -105.1778 295° West 467 537 36,000  Level Albuquerque Center
Wed 08:36:33 PM 31.4419 -105.3150 295° West 467 537 36,000  Level Albuquerque Center
Wed 08:37:35 PM 31.4964 -105.4550 295° West 472 543 36,000  Level Albuquerque Center
Wed 08:38:36 PM 31.5506 -105.5942 295° West 472 543 36,000  Level Albuquerque Center
Wed 08:39:38 PM 31.5744 -105.7419 281° West 473 544 36,000  Level Albuquerque Center
Wed 08:40:40 PM 31.5842 -105.9239 274° West 469 540 36,000  Level Albuquerque Center
Wed 08:41:42 PM 31.5939 -106.0761 274° West 470 541 36,000  Level Albuquerque Center
Wed 08:42:43 PM 31.6033 -106.2289 274° West 472 543 36,000  Level Albuquerque Center
Wed 08:43:45 PM 31.6122 -106.3833 274° West 475 547 36,000  Level Albuquerque Center
Wed 08:44:47 PM 31.6222 -106.5383 274° West 478 550 36,000  Level Albuquerque Center
Wed 08:45:48 PM 31.6350 -106.7131 275° West 476 548 36,000  Level Albuquerque Center
Wed 08:46:50 PM 31.6625 -106.8647 282° West 473 544 36,000  Level Albuquerque Center
Wed 08:47:52 PM 31.6817 -107.0189 278° West 477 549 36,000  Level Albuquerque Center
Wed 08:48:54 PM 31.6969 -107.1736 277° West 475 547 36,000  Level Albuquerque Center
Wed 08:49:55 PM 31.7153 -107.3292 278° West 478 550 36,000  Level Albuquerque Center
Wed 08:50:57 PM 31.7339 -107.4839 278° West 477 549 36,000  Level Albuquerque Center
Wed 08:51:59 PM 31.7528 -107.6478 278° West 472 543 36,000  Level Albuquerque Center
Wed 08:53:01 PM 31.7711 -107.7992 278° West 471 542 36,000  Level Albuquerque Center
Wed 08:54:02 PM 31.7878 -107.9492 277° West 469 540 36,000  Level Albuquerque Center
Wed 08:55:04 PM 31.8056 -108.0986 278° West 466 536 36,000  Level Albuquerque Center
Wed 08:56:06 PM 31.8247 -108.2808 277° West 469 540 36,000  Level Albuquerque Center
Wed 08:57:07 PM 31.8419 -108.4308 278° West 467 537 36,000  Level Albuquerque Center
Wed 08:58:09 PM 31.8583 -108.5806 277° West 465 535 36,000  Level Albuquerque Center
Wed 08:59:11 PM 31.8758 -108.7319 278° West 467 537 36,000  Level Albuquerque Center
Wed 09:00:13 PM 31.8922 -108.8828 277° West 468 539 36,000 -537 Level Albuquerque Center
Wed 09:01:14 PM 31.9089 -109.0344 277° West 469 540 34,900 -2,195 Descending Albuquerque Center
Wed 09:02:16 PM 31.9278 -109.2236 277° West 483 556 31,500 -3,242 Descending Albuquerque Center
Wed 09:03:18 PM 31.9450 -109.3858 277° West 494 568 28,200 -3,242 Descending Albuquerque Center
Wed 09:04:20 PM 31.9628 -109.5517 277° West 502 578 24,800 -3,122 Descending Albuquerque Center
Wed 09:05:21 PM 31.9811 -109.7097 278° West 502 578 21,800 -3,122 Descending Albuquerque Center
Wed 09:06:23 PM 31.9969 -109.8617 277° West 491 565 18,400 -2,855 Descending Albuquerque Center
Wed 09:07:25 PM 32.0111 -110.0086 277° West 477 549 15,900 -1,951 Descending Albuquerque Center
Wed 09:08:26 PM 32.0239 -110.1614 276° West 425 489 14,400 -1,038 Descending Albuquerque Center
Wed 09:09:09 PM 32.0339 -110.2514 277° West 391 450 14,100 -484 Descending Albuquerque Center
Wed 09:09:28 PM 32.0353 -110.2847 273° West 395 455 13,900 -984 Descending Albuquerque Center
Wed 09:10:10 PM 32.0233 -110.3703 261° West 360 414 13,100 -1,161 Descending Albuquerque Center
Wed 09:10:30 PM 32.0211 -110.4000 265° West 363 418 12,700 -1,667 Descending Albuquerque Center
Wed 09:11:04 PM 32.0097 -110.4622 258° West 314 361 11,600 -1,967 Descending Albuquerque Center
Wed 09:11:31 PM 32.0061 -110.4950 263° West 316 364 10,700 -1,967 Descending Albuquerque Center
Wed 09:12:05 PM 31.9906 -110.5603 254° West 304 350 9,600 -1,355 Descending Albuquerque Center
Wed 09:12:33 PM 31.9867 -110.5914 262° West 308 354 9,300 -1,000 Descending Albuquerque Center
Wed 09:13:05 PM 31.9717 -110.6486 253° West 282 325 8,600 -871 Descending Albuquerque Center
Wed 09:13:35 PM 31.9703 -110.6783 267° West 291 335 8,400 -545 Descending Albuquerque Center
Wed 09:14:00 PM 31.9689 -110.7197 268° West 243 280 8,100 -774 Descending Albuquerque Center
Wed 09:14:37 PM 31.9800 -110.7558 290° West 242 278 7,600 -857 Descending Albuquerque Center
Wed 09:15:38 PM 32.0044 -110.8083 299° West 219 252 6,700 -537 Descending Albuquerque Center
Wed 09:16:40 PM 32.0297 -110.8606 300° West 213 245 6,500 -1,500 Descending Albuquerque Center
Wed 09:17:02 PM 32.0511 -110.8658 348° North 157 181 4,600 -2,447 Descending Albuquerque Center
Wed 09:17:56 PM 32.0761 -110.8944 316° Northwest 138 159 3,400 -991 Descending Albuquerque Center
Wed 09:18:51 PM 32.1014 -110.9253 314° West 141 162 2,800 -655 Descending Albuquerque Center
Wed 09:20:00 PM 32.1000 -110.9333 301° West  Level FlightAware Approximate
Wed 09:27:00 PM 32.1161 -110.9410 301° West  Level Estimated

Login

Don't have an account? Register now (free) for customized features, flight alerts, and more!